Aviation Digital Data Service (ADDS)

Output produced by METARs form (0059 UTC 22 September 2017)
found at http://www.aviationweather.gov/adds/metars/
 
HRYR 212300Z 2200/2306 31005KT 9999 SCT026 SCT100 
     BECMG 2202/2205 VRB03KT 7000 SCT026 BKN100 
     FM220900 16008KT 9999 BKN025 
     TEMPO 2211/2217 12010KT TS FEW023CB BKN025 
     FM222100 34004KT SCT026 SCT100 
     BECMG 2303/2306 VRB03KT 8000 SCT026 BKN100